Colman, South Dakota
Current Conditions -  °F | °C
As of 1:55 AM on Sunday 26 Oct 2014 (Local Time) from KMDS Reporting Station
Clear Clear  
Wind Chill: 34°   Ceiling: Unl
Heat Index: 37°   Visibility: 10mi
Dew Point: 32°   Wind: 5mph
Humidity: 81%   Direction: 110°ESE
Pressure: 30"   Gusts: NA
Location:  43.98°N, 96.81°W
Report Text: KMDS 260655Z AUTO 11004KT 10SM CLR 03/00 A3000 RMK AO2
Loading
Personal Weather Stations






























Interactive Weather Map New forecast layout! Learn more

10-Day Weather Forecast

Advertisements
Track Severe Weather on mobile